ADDS METAR Data INFO
IDs: Format: Raw Decoded Include TAF

Data at: 0115 UTC 20 Feb 2018

KSLB 200055Z AUTO 10SM CLR M07/M07 A2982 RMK AO2
KSLB 200035Z AUTO 10SM CLR M07/M07 A2982 RMK AO2
KSLB 200015Z AUTO 9SM CLR M07/M07 A2981 RMK AO2
KSLB 192355Z AUTO 6SM BR CLR M07/M07 A2980 RMK AO2
KSLB 192335Z AUTO 5SM BR CLR M07/M07 A2979 RMK AO2
KSLB 192315Z AUTO 3SM BR CLR M07/M07 A2981 RMK AO2
KSLB 192255Z AUTO 2 1/2SM BR CLR M07/M07 A2979 RMK AO2
KSLB 192235Z AUTO 2SM BR CLR M07/M07 A2979 RMK AO2
KSLB 192215Z AUTO 2SM BR CLR M07/M07 A2980 RMK AO2
KSLB 192155Z AUTO 2SM BR CLR M07/M07 A2980 RMK AO2
KSLB 192135Z AUTO 2SM BR CLR M06/M07 A2978 RMK AO2
KSLB 192115Z AUTO 2SM BR CLR M06/M07 A2976 RMK AO2
KSLB 192055Z AUTO 1 1/2SM BR CLR M07/M07 A2978 RMK AO2
KSLB 192035Z AUTO 1 1/4SM BR CLR M07/M07 A2976 RMK AO2
KSLB 192015Z AUTO 1 1/2SM BR CLR M07/M07 A2977 RMK AO2
KSLB 191955Z AUTO 1 1/4SM BR CLR M06/M07 A2977 RMK AO2
KSLB 191935Z AUTO 1SM BR CLR M06/M06 A2976 RMK AO2
KSLB 191915Z AUTO 1SM BR CLR M06/M06 A2976 RMK AO2
KSLB 191855Z AUTO 1 1/2SM BR CLR M06/M06 A2977 RMK AO2
KSLB 191835Z AUTO 1 1/4SM BR CLR M06/M06 A2977 RMK AO2
KSLB 191815Z AUTO 1SM BR CLR M06/M07 A2976 RMK AO2
KSLB 191755Z AUTO 1SM -SN CLR M06/M07 A2976 RMK AO2
KSLB 191735Z AUTO 1SM BR CLR M06/M07 A2977 RMK AO2
KSLB 191715Z AUTO 1 3/4SM BR CLR M06/M07 A2977 RMK AO2
KSLB 191655Z AUTO 1 1/2SM BR CLR M06/M07 A2977 RMK AO2
KSLB 191635Z AUTO 1 1/4SM BR CLR M06/M07 A2975 RMK AO2
KSLB 191615Z AUTO 1 1/2SM BR CLR M06/M06 A2976 RMK AO2
KSLB 191555Z AUTO 1SM BR CLR M06/M06 A2975 RMK AO2
KSLB 191535Z AUTO 3/4SM -SN VV005 M06/M06 A2975 RMK AO2
KSLB 191515Z AUTO 1SM -SN CLR M06/M06 A2975 RMK AO2
KSLB 191455Z AUTO 2 1/2SM BR CLR M06/M06 A2975 RMK AO2
KSLB 191435Z AUTO 2SM -UP CLR M06/M06 A2976 RMK AO2
KSLB 191415Z AUTO 3SM BR CLR M06/M06 A2975 RMK AO2
KSLB 191355Z AUTO 3SM BR CLR M06/M06 A2975 RMK AO2
KSLB 191335Z AUTO 2 1/2SM BR CLR M05/M06 A2973 RMK AO2
KSLB 191315Z AUTO 3SM -SN CLR M05/M06 A2973 RMK AO2
KSLB 191255Z AUTO 3SM BR CLR M05/M06 A2972 RMK AO2
KSLB 191235Z AUTO 2 1/2SM -SN CLR M05/M05 A2971 RMK AO2
KSLB 191215Z AUTO 4SM -SN CLR M05/M05 A2972 RMK AO2
KSLB 191155Z AUTO 3SM -SN CLR M05/M05 A2972 RMK AO2
KSLB 191135Z AUTO 2 1/2SM -SN CLR M04/M05 A2972 RMK AO2
KSLB 191115Z AUTO 2SM -SN CLR M04/M05 A2972 RMK AO2
KSLB 191055Z AUTO 1 3/4SM -SN CLR M04/M05 A2971 RMK AO2
KSLB 191035Z AUTO 2 1/2SM -SN CLR M04/M05 A2970 RMK AO2
KSLB 191015Z AUTO 02019G26KT 1 3/4SM -SN CLR M04/M05 A2969 RMK AO2
KSLB 190955Z AUTO 02023G28KT 2SM -SN FEW016 M04/M05 A2969 RMK AO2
KSLB 190935Z AUTO 03020G26KT -SN M04/M05 A2970 RMK AO2
KSLB 190915Z AUTO 03021G26KT 2SM -SN BKN019 M04/M05 A2969 RMK AO2
KSLB 190855Z AUTO 03020KT 10SM BKN021 OVC031 M04/M05 A2970 RMK AO2
KSLB 190835Z AUTO 03022G27KT 10SM BKN022 OVC031 M04/M05 A2968 RMK AO2
KSLB 190815Z AUTO 03020KT 10SM OVC023 M03/M05 A2968 RMK AO2
KSLB 190755Z AUTO 04020KT 10SM OVC024 M03/M05 A2967 RMK AO2
KSLB 190735Z AUTO 03019G25KT 10SM BKN023 OVC037 M03/M04 A2966 RMK AO2
KSLB 190715Z AUTO 03020G28KT 10SM BKN024 OVC037 M02/M04 A2968 RMK AO2
KSLB 190655Z AUTO 02019KT 10SM OVC025 M01/M03 A2968 RMK AO2
KSLB 190635Z AUTO 04017G23KT 10SM OVC025 M01/M03 A2968 RMK AO2
KSLB 190615Z AUTO 03018KT 10SM OVC030 M00/M03 A2968 RMK AO2
KSLB 190555Z AUTO 02016KT 10SM OVC032 00/M02 A2968 RMK AO2
KSLB 190535Z AUTO 03015KT 10SM OVC033 01/M02 A2967 RMK AO2
KSLB 190515Z AUTO 03014G20KT 10SM OVC034 01/M02 A2966 RMK AO2
KSLB 190455Z AUTO 02015KT 10SM OVC035 01/M01 A2965 RMK AO2
KSLB 190435Z AUTO 35015KT 10SM OVC035 03/00 A2965 RMK AO2
KSLB 190415Z AUTO 31004KT 10SM OVC037 04/00 A2965 RMK AO2
KSLB 190355Z AUTO 29004KT 10SM OVC039 03/00 A2964 RMK AO2
KSLB 190335Z AUTO 00000KT 10SM OVC040 03/00 A2964 RMK AO2
KSLB 190315Z AUTO 32004G10KT 10SM OVC042 03/00 A2965 RMK AO2
KSLB 190255Z AUTO 29008KT 10SM OVC044 03/M00 A2964 RMK AO2
KSLB 190235Z AUTO 18008KT 10SM BKN044 03/M00 A2962 RMK AO2
KSLB 190215Z AUTO 17008KT 10SM FEW045 02/M00 A2961 RMK AO2
KSLB 190155Z AUTO 17009KT 10SM CLR 02/M00 A2961 RMK AO2
KSLB 190135Z AUTO 17009KT 10SM CLR 03/M00 A2961 RMK AO2
KSLB 190115Z AUTO 16010KT 10SM CLR 03/M00 A2961 RMK AO2
KSLB 190055Z AUTO 17009KT 10SM CLR 03/M00 A2961 RMK AO2
KSLB 190035Z AUTO 17009KT 10SM CLR 04/M00 A2960 RMK AO2
KSLB 190015Z AUTO 17010KT 10SM CLR 04/00 A2959 RMK AO2
KSLB 182355Z AUTO 17012KT 10SM CLR 04/00 A2959 RMK AO2
KSLB 182335Z AUTO 16011KT 10SM CLR 04/01 A2958 RMK AO2
KSLB 182315Z AUTO 17011KT 10SM CLR 05/01 A2957 RMK AO2
KSLB 182255Z AUTO 16010KT 10SM CLR 06/01 A2957 RMK AO2
KSLB 182235Z AUTO 17008KT 10SM CLR 07/01 A2957 RMK AO2
KSLB 182215Z AUTO 18010KT 10SM CLR 07/01 A2957 RMK AO2
KSLB 182155Z AUTO 17009KT 10SM CLR 07/01 A2958 RMK AO2
KSLB 182135Z AUTO 17008KT 10SM CLR 07/02 A2958 RMK AO2
KSLB 182115Z AUTO 18012KT 10SM CLR 08/01 A2957 RMK AO2
KSLB 182055Z AUTO 20013KT 10SM CLR 08/00 A2959 RMK AO2
KSLB 182035Z AUTO 21011KT 10SM CLR 07/00 A2960 RMK AO2
KSLB 182015Z AUTO 21013G23KT 10SM CLR 07/00 A2960 RMK AO2
KSLB 181955Z AUTO 18016G25KT 10SM CLR 07/00 A2958 RMK AO2
KSLB 181935Z AUTO 19019G26KT 10SM CLR 07/M00 A2960 RMK AO2
KSLB 181915Z AUTO 19019G28KT 10SM CLR 07/M00 A2961 RMK AO2
KSLB 181855Z AUTO 19020G28KT 10SM CLR 06/M00 A2961 RMK AO2
KSLB 181835Z AUTO 19021KT 10SM CLR 06/01 A2960 RMK AO2
KSLB 181815Z AUTO 19022G30KT 10SM CLR 06/01 A2961 RMK AO2
KSLB 181755Z AUTO 19028G36KT 10SM CLR 06/01 A2962 RMK AO2
KSLB 181735Z AUTO 19030G37KT 10SM CLR 06/01 A2963 RMK AO2
KSLB 181715Z AUTO 19030G37KT 10SM CLR 05/00 A2964 RMK AO2
KSLB 181655Z AUTO 19029G37KT 10SM CLR 05/M00 A2966 RMK AO2
KSLB 181635Z AUTO 19027G35KT 10SM CLR 05/M00 A2967 RMK AO2
KSLB 181615Z AUTO 19030G36KT 10SM CLR 05/M01 A2967 RMK AO2
KSLB 181555Z AUTO 19026G35KT 10SM CLR 04/M01 A2969 RMK AO2
KSLB 181535Z AUTO 19025G32KT 10SM CLR 04/M02 A2970 RMK AO2
KSLB 181515Z AUTO 18024KT 10SM CLR 02/M02 A2971 RMK AO2
KSLB 181455Z AUTO 18023KT 10SM CLR 02/M03 A2973 RMK AO2
KSLB 181435Z AUTO 17022G30KT 10SM CLR 01/M04 A2974 RMK AO2
KSLB 181415Z AUTO 16020KT 10SM CLR M00/M04 A2977 RMK AO2
KSLB 181355Z AUTO 16019G25KT 10SM CLR M01/M04 A2978 RMK AO2
KSLB 181335Z AUTO 16018KT 10SM CLR M02/M05 A2978 RMK AO2